createdAt,value
2023-05-14T19:43:54.273Z,100426.84
2023-05-14T19:46:21.643Z,100422.52
2023-05-14T19:48:50.526Z,100427.77
2023-05-14T19:51:17.333Z,100423.30
2023-05-14T19:53:44.159Z,100419.47
2023-05-14T19:56:11.051Z,100423.91
2023-05-14T19:58:37.961Z,100424.25
2023-05-14T20:01:04.803Z,100425.35
2023-05-14T20:03:33.616Z,100424.93
2023-05-14T20:06:03.598Z,100422.63
2023-05-14T20:08:30.416Z,100419.99
2023-05-14T20:10:57.721Z,100421.64
2023-05-14T20:13:25.480Z,100421.23
2023-05-14T20:15:52.322Z,100421.07
2023-05-14T20:18:19.200Z,100419.27
2023-05-14T20:20:46.002Z,100421.09
2023-05-14T20:23:13.287Z,100417.55
2023-05-14T20:25:40.126Z,100417.80
2023-05-14T20:28:07.013Z,100416.50
2023-05-14T20:30:33.887Z,100413.77
2023-05-14T20:33:00.755Z,100413.59
2023-05-14T20:35:27.719Z,100411.65
2023-05-14T20:37:54.606Z,100405.02
2023-05-14T20:40:21.586Z,100406.44
2023-05-14T20:42:50.433Z,100404.33
2023-05-14T20:45:17.508Z,100400.84
2023-05-14T20:47:44.690Z,100399.56
2023-05-14T20:50:14.850Z,100399.91
2023-05-14T20:52:41.632Z,100400.20
2023-05-14T20:55:09.099Z,100395.06
2023-05-14T20:57:36.918Z,100394.60
2023-05-14T21:00:08.131Z,100399.11
2023-05-14T21:02:35.102Z,100400.92
2023-05-14T21:05:02.396Z,100403.66
2023-05-14T21:07:30.544Z,100399.41
2023-05-14T21:09:57.293Z,100398.96
2023-05-14T21:12:24.258Z,100396.52
2023-05-14T21:14:53.437Z,100393.90
2023-05-14T21:17:20.302Z,100391.08
2023-05-14T21:19:47.193Z,100392.69
2023-05-14T21:22:14.331Z,100390.77
2023-05-14T21:24:43.282Z,100388.29
2023-05-14T21:27:10.506Z,100390.20
2023-05-14T21:29:39.717Z,100385.47
2023-05-14T21:32:07.054Z,100385.56
2023-05-14T21:34:33.953Z,100381.77
2023-05-14T21:37:00.819Z,100381.45
2023-05-14T21:39:28.850Z,100376.89
2023-05-14T21:41:55.821Z,100377.02
2023-05-14T21:44:22.764Z,100375.33
2023-05-14T21:46:51.097Z,100378.97
2023-05-14T21:49:20.867Z,100377.53
2023-05-14T21:51:53.248Z,100375.72
2023-05-14T21:54:20.917Z,100374.56
2023-05-14T21:56:47.935Z,100376.80
2023-05-14T21:59:14.703Z,100375.41
2023-05-14T22:02:00.627Z,100377.11
2023-05-14T22:04:28.474Z,100377.98
2023-05-14T22:06:55.206Z,100381.30
2023-05-14T22:09:22.055Z,100382.46
2023-05-14T22:11:49.005Z,100380.80
2023-05-14T22:14:15.780Z,100380.94
2023-05-14T22:16:42.610Z,100376.19
2023-05-14T22:19:09.600Z,100376.66
2023-05-14T22:21:36.441Z,100375.25
2023-05-14T22:24:03.222Z,100372.62
2023-05-14T22:26:30.195Z,100375.37
2023-05-14T22:28:57.714Z,100374.00
2023-05-14T22:31:24.504Z,100370.47
2023-05-14T22:33:52.182Z,100372.17
2023-05-14T22:36:18.919Z,100369.71
2023-05-14T22:38:45.722Z,100369.10
2023-05-14T22:41:12.561Z,100369.39
2023-05-14T22:43:39.304Z,100369.55
2023-05-14T22:46:06.395Z,100367.27
2023-05-14T22:48:33.241Z,100367.41
2023-05-14T22:51:00.051Z,100364.94
2023-05-14T22:53:26.881Z,100362.09
2023-05-14T22:55:53.737Z,100363.92
2023-05-14T22:58:21.607Z,100360.05
2023-05-14T23:00:48.311Z,100361.52
2023-05-14T23:03:15.238Z,100357.79
2023-05-14T23:05:42.344Z,100360.45
2023-05-14T23:08:09.536Z,100361.37
2023-05-14T23:10:36.386Z,100358.13
2023-05-14T23:13:03.751Z,100355.03
2023-05-14T23:15:30.767Z,100353.55
2023-05-14T23:17:57.714Z,100357.80
2023-05-14T23:20:24.786Z,100353.58
2023-05-14T23:22:52.522Z,100356.13
2023-05-14T23:25:19.853Z,100358.77
2023-05-14T23:27:46.750Z,100356.76
2023-05-14T23:30:13.688Z,100359.70
2023-05-14T23:32:40.645Z,100353.51
2023-05-14T23:35:08.371Z,100354.77
2023-05-14T23:37:41.600Z,100352.61
2023-05-14T23:40:10.392Z,100352.23
2023-05-14T23:42:37.188Z,100351.02
2023-05-14T23:45:04.672Z,100351.11
2023-05-14T23:47:31.504Z,100350.96
2023-05-14T23:49:59.921Z,100351.94
2023-05-14T23:52:26.712Z,100353.29
2023-05-14T23:54:54.338Z,100351.99
2023-05-14T23:57:21.127Z,100353.33
2023-05-14T23:59:47.900Z,100356.47
